EA5AFP-10 Ador ES current weather conditions

sailwx.info

Wind from 225 at 7 knots gusting 15

Air temperature 17.2° C
Dewpoint -25.2° C

Last reported at 2018-Dec-15 12:01 UTC.
Time now 2018-Dec-15 12:16 UTC

Location: N 38°55' W 000°13'.
View on Google Maps.

See reports from other nearby stations

  
Tides and Currents Weather Stations Pressure Air Temp Water Temp Dewpoint Dewpoint Depression Visibility Wind Speed Wind Dir Waves Ship Positions
date/time (UTC)wind fromknots sea level pressurealtimeterstation pressurevisibilityair tempwater tempwave heightnotes
2018-Dec-15 12:01 225 7 gusting 15 17.2
2018-Dec-15 11:48 270 8 gusting 14 16.7
2018-Dec-15 11:35 16.7
2018-Dec-15 11:21 315 7 gusting 14 16.1
2018-Dec-15 11:06 225 5 gusting 11 16.1
2018-Dec-15 10:53 225 7 gusting 12 15.6
2018-Dec-15 10:40 135 9 gusting 19 15.6
2018-Dec-15 10:28 15.0
2018-Dec-15 10:13 270 10 gusting 17 15.0
2018-Dec-15 09:59 270 7 gusting 12 14.4
2018-Dec-15 09:45 270 8 gusting 14 13.9
2018-Dec-15 09:31 270 6 gusting 14 13.9
2018-Dec-15 09:18 13.3
2018-Dec-15 09:04 13.3
2018-Dec-15 08:52 180 1 gusting 2 12.8
2018-Dec-15 08:39 270 0 gusting 2 12.2
2018-Dec-15 08:25 11.7
2018-Dec-15 08:12 11.7
2018-Dec-15 07:59 270 4 gusting 6 11.7
2018-Dec-15 07:45 225 3 gusting 6 11.1
2018-Dec-15 07:31 270 2 gusting 5 10.6
2018-Dec-15 07:17 225 2 gusting 5 10.6
2018-Dec-15 07:03 10.6
2018-Dec-15 06:51 315 5 gusting 7 10.6
2018-Dec-15 06:36 270 5 gusting 10 10.6
2018-Dec-15 06:22 225 5 gusting 10 10.6
2018-Dec-15 06:07 225 7 gusting 13 10.6
2018-Dec-15 05:53 270 5 gusting 10 10.0
2018-Dec-15 05:41 270 2 gusting 6 10.0
2018-Dec-15 05:27 225 4 gusting 8 10.0
2018-Dec-15 05:13 315 0 gusting 2 9.4
2018-Dec-15 05:01 315 4 gusting 6 8.9
2018-Dec-15 04:47 270 0 gusting 2 9.4
2018-Dec-15 04:33 270 1 gusting 2 10.0
2018-Dec-15 04:19 10.0
2018-Dec-15 04:06 270 2 gusting 5 10.0
2018-Dec-15 03:53 180 4 gusting 7 10.6
2018-Dec-15 03:39 225 7 gusting 13 10.6
2018-Dec-15 03:25 270 6 gusting 9 10.6
2018-Dec-15 03:12 270 5 gusting 7 10.6
2018-Dec-15 02:59 11.1
2018-Dec-15 02:47 10.6
2018-Dec-15 02:33 045 10.6
2018-Dec-15 02:20 270 4 gusting 8 10.0
2018-Dec-15 02:08 270 2 gusting 4 10.0
2018-Dec-15 01:56 270 2 gusting 5 10.0
2018-Dec-15 01:42 270 2 gusting 6 10.0
2018-Dec-15 01:28 315 5 gusting 11 10.0
2018-Dec-15 01:15 270 1 gusting 2 10.0
2018-Dec-15 01:02 270 4 gusting 5 10.0
2018-Dec-15 00:49 270 3 gusting 6 9.4
2018-Dec-15 00:35 270 2 gusting 3 9.4
2018-Dec-15 00:20 270 1 gusting 2 9.4
2018-Dec-15 00:06 9.4
2018-Dec-14 23:52 10.0
2018-Dec-14 23:37 270 1 gusting 2 10.0
2018-Dec-14 23:24 9.4
2018-Dec-14 23:10 9.4
2018-Dec-14 22:56 270 0 gusting 2 9.4
2018-Dec-14 22:43 10.0
2018-Dec-14 22:30 225 10.0
2018-Dec-14 22:16 270 2 gusting 3 10.6
2018-Dec-14 22:03 11.1
2018-Dec-14 21:50 315 2 gusting 5 11.1
2018-Dec-14 21:37 315 3 gusting 6 11.1
2018-Dec-14 21:24 135 2 gusting 7 11.1
2018-Dec-14 21:12 270 1 gusting 2 11.7
2018-Dec-14 20:59 270 2 gusting 7 11.7
2018-Dec-14 20:46 090 0 gusting 2 11.1
2018-Dec-14 20:34 11.1
2018-Dec-14 20:21 10.6
2018-Dec-14 20:09 225 0 gusting 2 10.6
2018-Dec-14 19:55 270 2 gusting 4 11.7
2018-Dec-14 19:41 180 2 gusting 4 12.2
2018-Dec-14 19:29 270 0 gusting 2 12.2
2018-Dec-14 19:14 270 2 gusting 5 11.7
2018-Dec-14 19:01 12.2
2018-Dec-14 18:48 12.8
2018-Dec-14 18:33 180 2 gusting 4 12.8
2018-Dec-14 18:20 315 2 gusting 5 12.8
2018-Dec-14 18:07 12.8
2018-Dec-14 17:55 270 2 gusting 5 12.8
2018-Dec-14 17:42 225 2 gusting 3 13.3
2018-Dec-14 17:30 225 2 gusting 4 13.3
2018-Dec-14 17:18 315 3 gusting 6 13.3
2018-Dec-14 17:03 225 2 gusting 5 13.3
2018-Dec-14 16:51 270 2 gusting 5 13.9
2018-Dec-14 16:38 315 1 gusting 4 13.9
2018-Dec-14 16:25 270 2 gusting 4 14.4
2018-Dec-14 16:12 225 6 gusting 8 14.4
2018-Dec-14 15:58 14.4
2018-Dec-14 15:44 270 3 gusting 6 15.0
2018-Dec-14 15:31 15.0
2018-Dec-14 15:18 225 2 gusting 6 15.6
2018-Dec-14 15:04 270 2 gusting 5 16.7
2018-Dec-14 14:51 270 0 gusting 2 16.7
2018-Dec-14 14:38 16.7
2018-Dec-14 14:26 270 1 gusting 3 16.7
2018-Dec-14 14:13 270 2 gusting 3 16.7
2018-Dec-14 14:01 270 2 gusting 5 16.7
2018-Dec-14 13:46 270 1 gusting 5 16.7
2018-Dec-14 13:31 270 5 gusting 6 16.7
2018-Dec-14 13:17 15.6
2018-Dec-14 13:02 045 6 gusting 12 15.6
2018-Dec-14 12:50 270 2 gusting 6 15.6
2018-Dec-14 12:36 270 3 gusting 5 15.6
2018-Dec-14 12:21 270 7 gusting 12 15.0
2018-Dec-14 12:07 225 5 gusting 8 15.0
2018-Dec-14 11:53 225 2 gusting 5 15.0
2018-Dec-14 11:39 15.0
2018-Dec-14 11:27 270 4 gusting 8 14.4
2018-Dec-14 11:14 270 7 gusting 12 13.9
2018-Dec-14 11:01 225 5 gusting 7 13.9
2018-Dec-14 10:48 270 6 gusting 11 13.9
2018-Dec-14 10:35 180 5 gusting 10 13.3
2018-Dec-14 10:23 225 4 gusting 7 12.8
2018-Dec-14 10:09 270 5 gusting 10 12.8
2018-Dec-14 09:56 180 6 gusting 10 12.8
2018-Dec-14 09:42 12.2
2018-Dec-14 09:28 180 4 gusting 8 11.7
2018-Dec-14 09:14 270 5 gusting 9 11.7
2018-Dec-14 09:00 315 7 gusting 13 10.6
2018-Dec-14 08:48 270 8 gusting 16 10.6
2018-Dec-14 08:33 270 9 gusting 19 10.6
2018-Dec-14 08:20 225 10 gusting 17 10.0
2018-Dec-14 08:07 270 7 gusting 19 10.0
2018-Dec-14 07:52 9.4
2018-Dec-14 07:38 270 5 gusting 7 9.4
2018-Dec-14 07:25 270 2 gusting 6 9.4
2018-Dec-14 07:12 315 3 gusting 5 8.9
2018-Dec-14 06:57 270 1 gusting 3 9.4
2018-Dec-14 06:43 315 4 gusting 7 9.4
2018-Dec-14 06:28 270 2 gusting 6 8.9
2018-Dec-14 06:14 225 5 gusting 8 8.9
2018-Dec-14 06:01 9.4
2018-Dec-14 05:47 270 6 gusting 12 9.4
2018-Dec-14 05:34 225 6 gusting 10 9.4
2018-Dec-14 05:21 180 2 gusting 9 9.4
2018-Dec-14 05:09 225 2 gusting 4 10.0
2018-Dec-14 04:54 270 3 gusting 6 10.0
2018-Dec-14 04:42 225 2 gusting 5 10.0
2018-Dec-14 04:27 270 4 gusting 8 10.0
2018-Dec-14 04:13 180 1 gusting 4 10.6
2018-Dec-14 03:59 270 7 gusting 13 10.6
2018-Dec-14 03:45 10.6
2018-Dec-14 03:32 10.6
2018-Dec-14 03:19 10.6
2018-Dec-14 03:06 225 5 gusting 13 10.6
2018-Dec-14 02:52 225 2 gusting 4 10.6
2018-Dec-14 02:37 270 1 gusting 5 10.6
2018-Dec-14 02:24 225 5 gusting 7 10.6
2018-Dec-14 02:12 045 0 gusting 2 10.6
2018-Dec-14 01:58 270 0 gusting 2 10.0
2018-Dec-14 01:45 225 4 gusting 6 10.0
2018-Dec-14 01:32 10.0
2018-Dec-14 01:18 270 3 gusting 7 9.4
2018-Dec-14 01:03 225 5 gusting 10 9.4
2018-Dec-14 00:51 225 7 gusting 11 9.4
2018-Dec-14 00:39 270 2 gusting 5 8.9
2018-Dec-14 00:25 270 4 gusting 7 8.9
2018-Dec-14 00:12 270 5 gusting 9 8.9
2018-Dec-13 23:59 270 5 gusting 7 8.9
2018-Dec-13 23:46 225 5 gusting 10 8.9
2018-Dec-13 23:32 225 5 gusting 10 8.9
2018-Dec-13 23:17 270 4 gusting 6 8.9
2018-Dec-13 23:05 225 3 gusting 8 8.9
2018-Dec-13 22:51 270 6 gusting 13 8.9
2018-Dec-13 22:37 180 2 gusting 5 8.9
2018-Dec-13 22:24 8.3
2018-Dec-13 22:10 270 3 gusting 7 8.3
2018-Dec-13 21:57 225 3 gusting 6 8.3
2018-Dec-13 21:42 225 3 gusting 6 8.3
2018-Dec-13 21:28 270 2 gusting 4 8.3
2018-Dec-13 21:16 8.3
2018-Dec-13 21:04 270 0 gusting 2 8.3
2018-Dec-13 20:49 270 8.3
2018-Dec-13 20:36 270 3 gusting 6 8.3
2018-Dec-13 20:21 270 8.3
2018-Dec-13 20:08 315 3 gusting 7 8.3
2018-Dec-13 19:54 8.9
2018-Dec-13 19:40 315 0 gusting 1 8.9
2018-Dec-13 19:28 270 3 gusting 9 8.9
2018-Dec-13 19:15 270 4 gusting 6 8.9
2018-Dec-13 19:02 270 0 gusting 2 8.9
2018-Dec-13 18:47 225 2 gusting 5 9.4
2018-Dec-13 18:35 225 2 gusting 5 9.4
2018-Dec-13 18:22 270 3 gusting 7 9.4
2018-Dec-13 18:10 225 5 gusting 9 10.0
2018-Dec-13 17:56 270 3 gusting 5 10.6
2018-Dec-13 17:41 090 2 gusting 6 11.7
2018-Dec-13 17:27 225 4 gusting 7 11.7
2018-Dec-13 17:12 315 7 gusting 13 11.7
2018-Dec-13 17:00 180 5 gusting 9 12.2
2018-Dec-13 16:46 270 6 gusting 10 12.2
2018-Dec-13 16:33 225 4 gusting 7 12.2
2018-Dec-13 16:19 270 7 gusting 13 12.8
2018-Dec-13 16:05 270 2 gusting 9 12.8
2018-Dec-13 15:50 270 3 gusting 6 12.2
2018-Dec-13 15:38 135 7 gusting 13 12.2
2018-Dec-13 15:23 270 8 gusting 13 12.8
2018-Dec-13 15:10 270 6 gusting 9 12.8
2018-Dec-13 14:57 12.8
2018-Dec-13 14:44 225 12.2
2018-Dec-13 14:29 270 12.2
2018-Dec-13 14:16 315 0 gusting 2 12.2
2018-Dec-13 14:02 270 12.2
2018-Dec-13 13:50 270 0 gusting 3 12.2
2018-Dec-13 13:37 270 5 gusting 8 12.2
2018-Dec-13 13:24 315 1 gusting 3 12.2
2018-Dec-13 13:09 270 1 gusting 2 12.2
2018-Dec-13 12:56 225 2 gusting 4 12.8
2018-Dec-13 12:42 225 5 gusting 10 12.8
2018-Dec-13 12:27 270 13.3
2018-Dec-13 12:13 045 0 gusting 2 14.4
2018-Dec-13 12:00 14.4